Clam Gulch, AK

4:51 PM AKDT on July 30, 2014 (GMT -0800)
RAWS NINILCHIK AK US (MNCKA2) Elev 360 ft | 60.01 °N, 151.54 °W | Change Station

Current weather conditions updated 59 minutes ago

Clear
Clear
69 °F
Feels Like 69 °F
N
3
Wind Variable Wind from WSW
Gusts 8.0 mph

Tomorrow is forecast to be nearly the same temperature as today.

Today
High -- | Low -- °F
--% Chance of Precip.
Yesterday
High -- | Low -- °F
Precip. -- in
5:40 AM 10:41 PM
Waxing Crescent, 14% visible
Pressure 30.18 in
Visibility 10.0 miles
Clouds Clear
Dew Point 55 °F
Humidity 61%
Rainfall 0.01 in
Snow Depth Not available.
UV 5 out of 12
Pollen Not available.
Air Quality Not available.
Flu Activity Not available.
METAR PASX 310036Z AUTO 26010KT 10SM CLR 19/11 A3018 RMK AO1

More Conditions Fewer Conditions

Pressure 30.18 in
Visibility 10.0 miles
Clouds Clear
Dew Point 55 °F
Humidity 61%
Rainfall 0.01 in
Snow Depth Not available.
UV 5 out of 12
Pollen Not available.
Air Quality Not available.
Flu Activity Not available.
METAR PASX 310036Z AUTO 26010KT 10SM CLR 19/11 A3018 RMK AO1

More Conditions Fewer Conditions

10-Day Weather Forecast

Almanac

Astronomy

Jul. 30, 2014 Rise Set
Actual Time 5:40 AM AKDT 10:41 PM AKDT
Civil Twilight 4:38 AM AKDT 11:43 PM AKDT
Nautical Twilight 2:44 AM AKDT 1:39 AM AKDT
Astronomical Twilight Sun does not rise Sun does not rise
Moon 10:37 AM AKDT (7/30) 11:07 PM AKDT (7/30)
Length of Visible Light 19h 05m
Length of Day
17h 00m
Tomorrow will be 4m 50s shorter.
Waxing Crescent, 14% of the Moon is Illuminated
Today
Waxing Crescent
Aug 3
First Quarter
Aug 10
Full
Aug 17
Last Quarter
Aug 25
New

Community

WunderPhotos

Upload Photos

1,739,261 photos uploaded!

Nearby

Snow Depth

Station Depth Elevation
Mcneil Canyon 1 in 1320 ft
MF Bradley River 416 in 2300 ft
Cooper Lake 18 in 1200 ft
Summit Creek 0 in 1400 ft
Grouse Creek Divide 0 in 700 ft

Earthquake Activity

City Distance Mag. Time & Date
No recent earthquake activity has been reported nearby.
Minimum magnitude displayed is 2.5.

Coastal Water Temperatures

Place Temperature
No Stations Reporting

Nearby Weather Stations

Station Location Temp. Dew Point Humidity Wind Precip. Elev Updated Type
RAWS NINILCHIK AK, Ninilchik, AK 69 °F 55 °F 61% WSW  at  3 mph 0.00 in / hr 360 ft 3:52 PM AKDT MADIS
AKDOT Sterling Highway @ Ninilchik River, Ninilchik, AK 63 °F 52 °F 68% SW  at  5 mph 0.00 in / hr 98 ft 3:53 PM AKDT MADIS
Irish Hills, Soldotna, AK 64.9 °F 49 °F 57% West  at  4.6 mph 0.00 in / hr 200 ft 4:51 PM AKDT Rapid Fire
W. Corral PWS, Soldotna, AK 66.9 °F 56 °F 67% South  at  9.8 mph 0.00 in / hr 110 ft 4:51 PM AKDT Rapid Fire

Show More Stations Show Fewer Stations